Aviation Digital Data Service (ADDS)

Output produced by METARs form (0412 UTC 24 May 2017)
found at http://aviationweather.gov/adds/metars/
 
KFAY 240339Z 2404/2424 23008KT 1 1/2SM +RA BR FEW012 BKN027 OVC060 
     TEMPO 2404/2406 P6SM -RA OVC015 
     FM240600 22006KT 5SM BR OVC007 
     FM240900 22004KT 5SM BR OVC004 
     FM241200 20005KT 4SM BR OVC004 
     FM241800 19013KT P6SM OVC025